Time;durP1;ratioP1;P1;durP2;ratioP2;P2;SDS_P1;SDS_P2;PMS_P1;PMS_P2;Temp;Humidity;BMP_temperature;BMP_pressure;BME280_temperature;BME280_humidity;BME280_pressure;Samples;Min_cycle;Max_cycle;Signal;HPM_P1;HPM_P2
2023/09/25 00:00:55;;;;;;;6.45;5.68;;;;;;;;;;2092678;28;20130;-73
2023/09/25 00:02:16;;;;;;;7.32;6.20;;;;;;;;;;2093383;28;20033;-73
2023/09/25 00:03:37;;;;;;;8.35;6.68;;;;;;;;;;2093046;28;20549;-73
2023/09/25 00:04:58;;;;;;;9.60;6.72;;;;;;;;;;2089094;28;20129;-73
2023/09/25 00:06:19;;;;;;;8.32;6.60;;;;;;;;;;2090352;28;20029;-73
2023/09/25 00:07:40;;;;;;;8.07;6.20;;;;;;;;;;2095137;28;20074;-73
2023/09/25 00:09:01;;;;;;;9.68;6.68;;;;;;;;;;2094913;28;20025;-73
2023/09/25 00:10:22;;;;;;;12.90;7.45;;;;;;;;;;2092386;28;20029;-73
2023/09/25 00:11:44;;;;;;;10.50;7.22;;;;;;;;;;2092728;28;20086;-73
2023/09/25 00:13:05;;;;;;;7.65;6.50;;;;;;;;;;2092071;28;20029;-74
2023/09/25 00:14:25;;;;;;;10.00;6.97;;;;;;;;;;2097480;28;20110;-73
2023/09/25 00:15:46;;;;;;;11.68;6.65;;;;;;;;;;2095960;28;20407;-72
2023/09/25 00:17:07;;;;;;;6.95;6.25;;;;;;;;;;2093118;28;20484;-73
2023/09/25 00:18:28;;;;;;;8.88;6.40;;;;;;;;;;2093253;28;20036;-73
2023/09/25 00:19:49;;;;;;;12.75;8.10;;;;;;;;;;2093715;28;20033;-73
2023/09/25 00:21:10;;;;;;;11.10;7.38;;;;;;;;;;2092399;28;20508;-73
2023/09/25 00:22:31;;;;;;;11.20;7.45;;;;;;;;;;2088950;28;20028;-73
2023/09/25 00:23:52;;;;;;;7.18;6.45;;;;;;;;;;2092545;28;20033;-74
2023/09/25 00:25:13;;;;;;;9.75;6.60;;;;;;;;;;2093776;28;20102;-73
2023/09/25 00:26:34;;;;;;;8.20;6.18;;;;;;;;;;2092334;28;20086;-73
2023/09/25 00:27:55;;;;;;;9.68;6.53;;;;;;;;;;2093250;28;20020;-73
2023/09/25 00:29:16;;;;;;;7.38;6.55;;;;;;;;;;2094578;28;20036;-73
2023/09/25 00:30:37;;;;;;;8.80;6.60;;;;;;;;;;2093032;28;20161;-73
2023/09/25 00:31:58;;;;;;;9.77;7.05;;;;;;;;;;2093773;28;20029;-72
2023/09/25 00:33:19;;;;;;;9.38;6.13;;;;;;;;;;2094080;28;20099;-73
2023/09/25 00:34:40;;;;;;;9.85;7.50;;;;;;;;;;2093831;28;20041;-72
2023/09/25 00:36:01;;;;;;;12.05;8.18;;;;;;;;;;2093874;28;20364;-73
2023/09/25 00:37:22;;;;;;;9.63;6.50;;;;;;;;;;2094605;28;20090;-73
2023/09/25 00:38:43;;;;;;;9.13;7.40;;;;;;;;;;2092491;28;20025;-73
2023/09/25 00:40:14;;;;;;;7.57;6.53;;;;;;;;;;2086456;28;20098;-73
2023/09/25 00:41:34;;;;;;;11.48;6.55;;;;;;;;;;2093683;28;20055;-73
2023/09/25 00:42:55;;;;;;;14.20;7.88;;;;;;;;;;2092363;28;20036;-73
2023/09/25 00:44:16;;;;;;;8.55;7.72;;;;;;;;;;2090923;28;20177;-73
2023/09/25 00:45:37;;;;;;;7.63;6.25;;;;;;;;;;2093602;28;20029;-73
2023/09/25 00:46:59;;;;;;;9.15;6.97;;;;;;;;;;2094263;28;20465;-73
2023/09/25 00:48:27;;;;;;;8.40;6.82;;;;;;;;;;2093901;28;20103;-73
2023/09/25 00:49:48;;;;;;;7.30;6.22;;;;;;;;;;2094033;28;20412;-73
2023/09/25 00:51:09;;;;;;;10.02;7.25;;;;;;;;;;2093591;28;20032;-73
2023/09/25 00:52:31;;;;;;;10.30;7.32;;;;;;;;;;2092156;28;20150;-73
2023/09/25 00:53:52;;;;;;;9.43;6.70;;;;;;;;;;2107268;28;20416;-74
2023/09/25 00:55:14;;;;;;;8.73;6.85;;;;;;;;;;2095228;28;20097;-74
2023/09/25 00:56:34;;;;;;;9.57;6.82;;;;;;;;;;2093669;28;20040;-73
2023/09/25 00:57:57;;;;;;;9.05;6.88;;;;;;;;;;2093262;28;20497;-73
2023/09/25 00:59:18;;;;;;;10.60;7.22;;;;;;;;;;2091817;28;20114;-73
2023/09/25 01:00:39;;;;;;;9.25;6.97;;;;;;;;;;2093391;28;21771;-73
2023/09/25 01:02:00;;;;;;;10.40;7.20;;;;;;;;;;2091342;28;20488;-73
2023/09/25 01:03:21;;;;;;;8.60;6.63;;;;;;;;;;2092845;28;20028;-72
2023/09/25 01:04:43;;;;;;;10.50;7.38;;;;;;;;;;2093755;28;20086;-73
2023/09/25 01:06:05;;;;;;;9.15;7.13;;;;;;;;;;2092948;28;20025;-73
2023/09/25 01:07:26;;;;;;;9.65;7.05;;;;;;;;;;2094322;28;20062;-73
2023/09/25 01:08:46;;;;;;;7.32;6.20;;;;;;;;;;2093365;28;20033;-73
2023/09/25 01:10:10;;;;;;;11.30;7.05;;;;;;;;;;2094844;28;20337;-73
2023/09/25 01:11:31;;;;;;;10.30;7.30;;;;;;;;;;2090604;28;20093;-73
2023/09/25 01:12:53;;;;;;;8.30;7.05;;;;;;;;;;2094493;28;20488;-73
2023/09/25 01:14:13;;;;;;;10.95;6.53;;;;;;;;;;2101780;28;20044;-73
2023/09/25 01:15:34;;;;;;;9.55;7.07;;;;;;;;;;2095901;28;20033;-72
2023/09/25 01:16:55;;;;;;;9.25;7.45;;;;;;;;;;2091712;28;20064;-72
2023/09/25 01:18:17;;;;;;;10.70;7.35;;;;;;;;;;2092768;28;20220;-73
2023/09/25 01:19:42;;;;;;;9.23;6.93;;;;;;;;;;2091582;28;20024;-72
2023/09/25 01:21:03;;;;;;;9.20;7.30;;;;;;;;;;2093556;28;20496;-73
2023/09/25 01:22:25;;;;;;;10.50;7.87;;;;;;;;;;2092225;28;20102;-73
2023/09/25 01:23:46;;;;;;;8.35;6.63;;;;;;;;;;2097114;28;20036;-73
2023/09/25 01:25:10;;;;;;;13.23;7.50;;;;;;;;;;2109550;28;20044;-72
2023/09/25 01:26:31;;;;;;;9.23;6.03;;;;;;;;;;2094994;28;20399;-72
2023/09/25 01:27:52;;;;;;;11.35;8.32;;;;;;;;;;2091485;28;20120;-72
2023/09/25 01:29:17;;;;;;;11.75;7.70;;;;;;;;;;2091486;28;20063;-72
2023/09/25 01:30:38;;;;;;;10.32;7.40;;;;;;;;;;2092975;28;20021;-72
2023/09/25 01:31:59;;;;;;;10.15;8.02;;;;;;;;;;2091870;28;20105;-72
2023/09/25 01:33:20;;;;;;;9.80;7.45;;;;;;;;;;2091111;28;20037;-72
2023/09/25 01:34:42;;;;;;;10.10;7.20;;;;;;;;;;2099298;28;20032;-73
2023/09/25 01:36:03;;;;;;;10.98;7.22;;;;;;;;;;2093469;28;20105;-72
2023/09/25 01:37:24;;;;;;;9.27;7.22;;;;;;;;;;2094704;28;20142;-72
2023/09/25 01:38:46;;;;;;;9.68;7.63;;;;;;;;;;2093934;28;20032;-73
2023/09/25 01:40:14;;;;;;;8.13;6.80;;;;;;;;;;2094940;28;20524;-73
2023/09/25 01:41:35;;;;;;;9.60;7.03;;;;;;;;;;2095561;28;20052;-73
2023/09/25 01:42:56;;;;;;;7.28;5.90;;;;;;;;;;2095908;28;20028;-73
2023/09/25 01:44:17;;;;;;;11.35;7.25;;;;;;;;;;2092856;28;20086;-74
2023/09/25 01:45:38;;;;;;;9.98;7.03;;;;;;;;;;2095763;28;20411;-73
2023/09/25 01:46:59;;;;;;;11.93;7.97;;;;;;;;;;2094456;28;20045;-73
2023/09/25 01:48:19;;;;;;;10.38;7.63;;;;;;;;;;2095738;28;20071;-73
2023/09/25 01:49:41;;;;;;;11.95;8.40;;;;;;;;;;2095592;28;20476;-73
2023/09/25 01:51:09;;;;;;;10.70;7.15;;;;;;;;;;2093729;28;20117;-73
2023/09/25 01:52:30;;;;;;;13.25;7.25;;;;;;;;;;2093969;28;20511;-73
2023/09/25 01:53:51;;;;;;;10.80;7.80;;;;;;;;;;2090923;28;20121;-73
2023/09/25 01:55:12;;;;;;;7.95;7.15;;;;;;;;;;2092975;28;20037;-73
2023/09/25 01:56:33;;;;;;;8.40;6.90;;;;;;;;;;2091959;28;20024;-73
2023/09/25 01:57:54;;;;;;;9.30;7.55;;;;;;;;;;2095149;28;20488;-73
2023/09/25 01:59:14;;;;;;;9.50;7.72;;;;;;;;;;2093790;28;20036;-73
2023/09/25 02:00:36;;;;;;;10.05;8.20;;;;;;;;;;2095097;28;20032;-73
2023/09/25 02:01:57;;;;;;;12.50;8.23;;;;;;;;;;2094536;28;20037;-73
2023/09/25 02:03:18;;;;;;;10.35;7.70;;;;;;;;;;2094065;28;20040;-73
2023/09/25 02:04:39;;;;;;;9.05;7.18;;;;;;;;;;2094756;28;20032;-72
2023/09/25 02:06:00;;;;;;;10.32;7.70;;;;;;;;;;2094278;28;20033;-73
2023/09/25 02:07:21;;;;;;;10.73;7.00;;;;;;;;;;2093669;28;20483;-74
2023/09/25 02:08:42;;;;;;;9.82;7.72;;;;;;;;;;2094394;28;20032;-73
2023/09/25 02:10:03;;;;;;;9.35;7.70;;;;;;;;;;2093970;28;20033;-73
2023/09/25 02:11:24;;;;;;;10.15;7.45;;;;;;;;;;2094375;28;20032;-73
2023/09/25 02:12:45;;;;;;;8.40;7.13;;;;;;;;;;2095042;28;20393;-73
2023/09/25 02:14:06;;;;;;;10.20;6.68;;;;;;;;;;2090032;28;20044;-73
2023/09/25 02:15:27;;;;;;;10.40;7.75;;;;;;;;;;2093095;28;20083;-73
2023/09/25 02:16:48;;;;;;;9.85;7.90;;;;;;;;;;2094759;28;20482;-73
2023/09/25 02:18:09;;;;;;;8.63;6.82;;;;;;;;;;2108190;27;20085;-74
2023/09/25 02:19:30;;;;;;;9.70;6.75;;;;;;;;;;2085491;28;20038;-72
2023/09/25 02:20:50;;;;;;;12.85;8.20;;;;;;;;;;2090381;28;20871;-73
2023/09/25 02:22:12;;;;;;;9.07;7.45;;;;;;;;;;2095087;28;20032;-73
2023/09/25 02:23:32;;;;;;;11.75;7.53;;;;;;;;;;2093034;28;20502;-73
2023/09/25 02:24:53;;;;;;;12.93;6.80;;;;;;;;;;2095558;28;20044;-73
2023/09/25 02:26:14;;;;;;;9.68;7.60;;;;;;;;;;2083509;28;20025;-72
2023/09/25 02:27:36;;;;;;;9.80;7.25;;;;;;;;;;2092052;28;20025;-73
2023/09/25 02:28:57;;;;;;;8.38;6.07;;;;;;;;;;2094216;28;20173;-72
2023/09/25 02:30:18;;;;;;;10.13;7.20;;;;;;;;;;2094675;28;20059;-74
2023/09/25 02:31:39;;;;;;;10.40;6.90;;;;;;;;;;2093761;28;20033;-73
2023/09/25 02:33:00;;;;;;;11.45;7.57;;;;;;;;;;2094197;28;20403;-72
2023/09/25 02:34:21;;;;;;;9.27;7.20;;;;;;;;;;2080310;28;20488;-73
2023/09/25 02:35:42;;;;;;;9.68;7.53;;;;;;;;;;2089863;28;20053;-73
2023/09/25 02:37:03;;;;;;;10.57;7.65;;;;;;;;;;2094006;28;20488;-72
2023/09/25 02:38:23;;;;;;;8.98;6.65;;;;;;;;;;2094310;28;20028;-74
2023/09/25 02:39:44;;;;;;;9.23;6.85;;;;;;;;;;2095071;28;20466;-72
2023/09/25 02:41:05;;;;;;;9.35;6.13;;;;;;;;;;2094574;28;20074;-73
2023/09/25 02:42:26;;;;;;;11.05;7.43;;;;;;;;;;2091899;28;20033;-73
2023/09/25 02:43:47;;;;;;;11.82;7.90;;;;;;;;;;2094617;28;20033;-73
2023/09/25 02:45:08;;;;;;;10.27;6.90;;;;;;;;;;2095924;28;20086;-72
2023/09/25 02:46:29;;;;;;;9.10;6.53;;;;;;;;;;2096139;28;20028;-73
2023/09/25 02:47:50;;;;;;;9.60;6.75;;;;;;;;;;2096743;28;20032;-73
2023/09/25 02:49:11;;;;;;;9.27;6.95;;;;;;;;;;2093838;28;20380;-72
2023/09/25 02:50:32;;;;;;;7.55;6.57;;;;;;;;;;2094032;28;20039;-72
2023/09/25 02:51:53;;;;;;;9.70;6.47;;;;;;;;;;2094736;28;20040;-73
2023/09/25 02:53:15;;;;;;;8.02;6.57;;;;;;;;;;2092719;28;20032;-73
2023/09/25 02:54:36;;;;;;;;;;;;;;;;;;2093995;28;20036;-72
2023/09/25 02:55:57;;;;;;;10.63;6.93;;;;;;;;;;2093134;28;19904;-73
2023/09/25 02:57:17;;;;;;;11.13;7.50;;;;;;;;;;2088155;28;20041;-72
2023/09/25 02:58:38;;;;;;;11.25;7.18;;;;;;;;;;2094022;28;20025;-73
2023/09/25 02:59:59;;;;;;;9.10;7.25;;;;;;;;;;2097083;28;20024;-72
2023/09/25 03:01:20;;;;;;;9.07;6.68;;;;;;;;;;2100337;28;20025;-72
2023/09/25 03:02:42;;;;;;;7.88;6.47;;;;;;;;;;2099101;28;20071;-72
2023/09/25 03:04:03;;;;;;;9.68;6.50;;;;;;;;;;2088976;28;20037;-73
2023/09/25 03:05:24;;;;;;;11.40;6.97;;;;;;;;;;2085006;28;20029;-72
2023/09/25 03:06:45;;;;;;;7.97;6.78;;;;;;;;;;2093382;28;20460;-72
2023/09/25 03:08:06;;;;;;;11.57;8.13;;;;;;;;;;2101700;28;20398;-73
2023/09/25 03:09:27;;;;;;;9.70;7.60;;;;;;;;;;2112044;28;20094;-73
2023/09/25 03:10:47;;;;;;;7.40;6.40;;;;;;;;;;2105560;28;20028;-72
2023/09/25 03:12:08;;;;;;;8.85;6.28;;;;;;;;;;2093503;28;20036;-73
2023/09/25 03:13:29;;;;;;;15.50;6.28;;;;;;;;;;2097422;28;20112;-72
2023/09/25 03:14:50;;;;;;;9.05;6.55;;;;;;;;;;2096622;28;20032;-73
2023/09/25 03:16:14;;;;;;;9.00;7.32;;;;;;;;;;2097564;28;20400;-73
2023/09/25 03:17:35;;;;;;;9.95;6.45;;;;;;;;;;2096288;28;20032;-73
2023/09/25 03:18:56;;;;;;;9.77;6.20;;;;;;;;;;2097362;28;20028;-73
2023/09/25 03:20:17;;;;;;;12.32;6.65;;;;;;;;;;2097073;28;20040;-73
2023/09/25 03:21:39;;;;;;;13.13;7.65;;;;;;;;;;2094908;28;20029;-73
2023/09/25 03:23:00;;;;;;;;;;;;;;;;;;2094894;28;20060;-72
2023/09/25 03:24:21;;;;;;;10.77;7.00;;;;;;;;;;2095889;28;19919;-72
2023/09/25 03:25:42;;;;;;;12.25;7.38;;;;;;;;;;2098017;28;20090;-72
2023/09/25 03:27:03;;;;;;;10.55;6.93;;;;;;;;;;2095766;28;20032;-72
2023/09/25 03:28:24;;;;;;;12.20;7.38;;;;;;;;;;2093284;28;20896;-73
2023/09/25 03:29:45;;;;;;;11.00;7.05;;;;;;;;;;2096382;28;20032;-73
2023/09/25 03:31:06;;;;;;;9.63;7.10;;;;;;;;;;2096139;28;20059;-74
2023/09/25 03:32:27;;;;;;;9.40;6.70;;;;;;;;;;2101693;28;20252;-73
2023/09/25 03:33:48;;;;;;;7.90;7.10;;;;;;;;;;2095952;28;20040;-73
2023/09/25 03:35:10;;;;;;;15.43;7.70;;;;;;;;;;2097534;28;20411;-73
2023/09/25 03:36:31;;;;;;;11.88;7.43;;;;;;;;;;2096655;28;20082;-74
2023/09/25 03:37:52;;;;;;;9.43;6.78;;;;;;;;;;2095614;28;20039;-73
2023/09/25 03:39:13;;;;;;;8.77;6.53;;;;;;;;;;2090004;28;20025;-74
2023/09/25 03:40:34;;;;;;;6.93;6.25;;;;;;;;;;2096666;28;20036;-74
2023/09/25 03:41:55;;;;;;;6.95;6.30;;;;;;;;;;2095526;28;20078;-74
2023/09/25 03:43:15;;;;;;;9.50;7.07;;;;;;;;;;2092749;28;20035;-74
2023/09/25 03:44:36;;;;;;;9.07;6.65;;;;;;;;;;2096672;28;20114;-73
2023/09/25 03:45:57;;;;;;;10.07;6.50;;;;;;;;;;2094992;28;20033;-74
2023/09/25 03:47:18;;;;;;;13.75;7.45;;;;;;;;;;2086185;28;20381;-74
2023/09/25 03:48:39;;;;;;;9.80;7.10;;;;;;;;;;2093871;28;20036;-73
2023/09/25 03:50:03;;;;;;;9.95;6.53;;;;;;;;;;2096747;28;20142;-73
2023/09/25 03:51:24;;;;;;;12.90;7.72;;;;;;;;;;2100064;28;20028;-73
2023/09/25 03:52:45;;;;;;;7.90;7.10;;;;;;;;;;2098691;28;20025;-74
2023/09/25 03:54:06;;;;;;;10.77;7.10;;;;;;;;;;2089875;28;20412;-73
2023/09/25 03:55:27;;;;;;;9.63;7.00;;;;;;;;;;2093183;28;20036;-73
2023/09/25 03:56:48;;;;;;;8.38;7.10;;;;;;;;;;2094953;28;20033;-73
2023/09/25 03:58:08;;;;;;;11.35;7.57;;;;;;;;;;2087853;28;20480;-73
2023/09/25 03:59:30;;;;;;;9.15;7.53;;;;;;;;;;2097688;28;20032;-73
2023/09/25 04:00:52;;;;;;;9.48;7.28;;;;;;;;;;2096410;28;20101;-74
2023/09/25 04:02:13;;;;;;;9.05;7.28;;;;;;;;;;2097453;28;20476;-73
2023/09/25 04:03:34;;;;;;;12.65;7.88;;;;;;;;;;2096276;28;20032;-74
2023/09/25 04:04:55;;;;;;;7.47;6.43;;;;;;;;;;2095686;28;20041;-73
2023/09/25 04:06:18;;;;;;;11.20;7.43;;;;;;;;;;2095954;28;20028;-73
2023/09/25 04:07:39;;;;;;;10.15;6.78;;;;;;;;;;2093756;28;20057;-73
2023/09/25 04:08:59;;;;;;;9.75;6.88;;;;;;;;;;2095055;28;20029;-73
2023/09/25 04:10:21;;;;;;;9.48;7.07;;;;;;;;;;2095129;28;20503;-72
2023/09/25 04:11:42;;;;;;;8.68;6.63;;;;;;;;;;2095096;28;20029;-73
2023/09/25 04:13:04;;;;;;;9.57;7.13;;;;;;;;;;2095460;28;20036;-73
2023/09/25 04:14:27;;;;;;;12.63;7.75;;;;;;;;;;2091826;28;20033;-73
2023/09/25 04:15:50;;;;;;;8.27;6.65;;;;;;;;;;2092995;28;20159;-73
2023/09/25 04:17:11;;;;;;;12.25;7.03;;;;;;;;;;2093815;28;20032;-73
2023/09/25 04:18:32;;;;;;;9.23;6.85;;;;;;;;;;2092269;28;20022;-74
2023/09/25 04:19:53;;;;;;;9.77;7.68;;;;;;;;;;2093952;28;20071;-73
2023/09/25 04:21:14;;;;;;;10.90;7.50;;;;;;;;;;2092080;28;20126;-74
2023/09/25 04:22:37;;;;;;;10.80;7.50;;;;;;;;;;2093285;28;20037;-73
2023/09/25 04:24:00;;;;;;;12.02;7.88;;;;;;;;;;2094258;28;20040;-74
2023/09/25 04:25:21;;;;;;;13.70;7.90;;;;;;;;;;2094830;28;20021;-73
2023/09/25 04:26:43;;;;;;;10.27;7.43;;;;;;;;;;2093602;28;20033;-73
2023/09/25 04:28:05;;;;;;;10.00;7.70;;;;;;;;;;2094650;28;20337;-73
2023/09/25 04:29:26;;;;;;;8.88;6.97;;;;;;;;;;2094681;28;20040;-74
2023/09/25 04:30:48;;;;;;;8.57;7.18;;;;;;;;;;2093154;28;20025;-73
2023/09/25 04:32:08;;;;;;;10.77;7.65;;;;;;;;;;2095706;28;20066;-74
2023/09/25 04:33:32;;;;;;;8.38;7.18;;;;;;;;;;2090576;28;20032;-73
2023/09/25 04:34:53;;;;;;;9.77;7.45;;;;;;;;;;2088273;28;20045;-73
2023/09/25 04:36:15;;;;;;;8.25;6.57;;;;;;;;;;2096414;28;20432;-73
2023/09/25 04:37:37;;;;;;;7.30;6.35;;;;;;;;;;2096923;28;20032;-74
2023/09/25 04:38:58;;;;;;;8.98;6.40;;;;;;;;;;2095896;28;20033;-73
2023/09/25 04:40:30;;;;;;;15.13;7.80;;;;;;;;;;2095496;28;20025;-73
2023/09/25 04:41:51;;;;;;;9.55;6.85;;;;;;;;;;2093150;28;20205;-73
2023/09/25 04:43:12;;;;;;;10.23;7.43;;;;;;;;;;2094145;28;20122;-73
2023/09/25 04:44:33;;;;;;;11.00;6.60;;;;;;;;;;2095016;28;20031;-73
2023/09/25 04:45:55;;;;;;;11.13;7.78;;;;;;;;;;2095069;28;20028;-73
2023/09/25 04:47:16;;;;;;;9.07;7.10;;;;;;;;;;2095752;28;20032;-73
2023/09/25 04:48:37;;;;;;;9.50;6.80;;;;;;;;;;2095990;28;20496;-73
2023/09/25 04:49:57;;;;;;;10.80;8.02;;;;;;;;;;2089642;28;20040;-73
2023/09/25 04:51:20;;;;;;;10.88;7.80;;;;;;;;;;2094472;28;20070;-73
2023/09/25 04:52:41;;;;;;;9.82;6.78;;;;;;;;;;2095695;28;20028;-73
2023/09/25 04:54:03;;;;;;;10.37;7.57;;;;;;;;;;2092517;28;20025;-73
2023/09/25 04:55:24;;;;;;;9.95;6.95;;;;;;;;;;2094466;28;20040;-73
2023/09/25 04:56:46;;;;;;;9.00;7.00;;;;;;;;;;2094013;28;20032;-73
2023/09/25 04:58:07;;;;;;;;;;;;;;;;;;2094797;28;20465;-73
2023/09/25 04:59:28;;;;;;;8.18;7.20;;;;;;;;;;2091770;28;19908;-74
2023/09/25 05:00:48;;;;;;;14.10;7.90;;;;;;;;;;2092660;28;20478;-73
2023/09/25 05:02:09;;;;;;;10.18;7.20;;;;;;;;;;2088865;28;20366;-73
2023/09/25 05:03:30;;;;;;;10.77;6.95;;;;;;;;;;2090967;28;20033;-72
2023/09/25 05:04:51;;;;;;;11.02;7.40;;;;;;;;;;2095593;28;20041;-73
2023/09/25 05:06:12;;;;;;;10.95;7.30;;;;;;;;;;2096240;28;20047;-73
2023/09/25 05:07:33;;;;;;;12.80;6.65;;;;;;;;;;2090615;28;20085;-73
2023/09/25 05:08:54;;;;;;;8.02;6.55;;;;;;;;;;2090181;28;20416;-73
2023/09/25 05:10:16;;;;;;;10.57;7.35;;;;;;;;;;2090327;28;20021;-73
2023/09/25 05:11:37;;;;;;;10.05;7.80;;;;;;;;;;2096818;28;20054;-72
2023/09/25 05:12:58;;;;;;;8.32;7.07;;;;;;;;;;2094512;28;20052;-73
2023/09/25 05:14:19;;;;;;;10.32;7.20;;;;;;;;;;2094912;28;20045;-72
2023/09/25 05:15:40;;;;;;;9.00;7.50;;;;;;;;;;2097772;28;20386;-73
2023/09/25 05:17:01;;;;;;;11.55;7.40;;;;;;;;;;2093541;28;20033;-73
2023/09/25 05:18:22;;;;;;;9.65;7.05;;;;;;;;;;2095859;28;20029;-72
2023/09/25 05:19:43;;;;;;;11.02;7.50;;;;;;;;;;2092834;28;20033;-73
2023/09/25 05:21:04;;;;;;;11.40;7.63;;;;;;;;;;2095332;28;20025;-73
2023/09/25 05:22:24;;;;;;;9.50;7.00;;;;;;;;;;2093157;28;20044;-73
2023/09/25 05:23:45;;;;;;;10.40;7.07;;;;;;;;;;2095025;28;20024;-73
2023/09/25 05:25:10;;;;;;;10.02;7.00;;;;;;;;;;2094910;28;20468;-73
2023/09/25 05:26:35;;;;;;;9.80;6.82;;;;;;;;;;2096109;28;20032;-72
2023/09/25 05:27:57;;;;;;;10.38;7.30;;;;;;;;;;2099822;28;20085;-73
2023/09/25 05:29:18;;;;;;;11.60;7.43;;;;;;;;;;2094703;28;20025;-74
2023/09/25 05:30:39;;;;;;;9.52;7.60;;;;;;;;;;2095330;28;20029;-73
2023/09/25 05:31:59;;;;;;;11.70;7.30;;;;;;;;;;2096448;28;20036;-73
2023/09/25 05:33:20;;;;;;;8.73;6.72;;;;;;;;;;2096369;28;20047;-73
2023/09/25 05:34:41;;;;;;;11.85;7.53;;;;;;;;;;2095303;28;20040;-73
2023/09/25 05:36:02;;;;;;;12.07;7.30;;;;;;;;;;2095337;28;20040;-73
2023/09/25 05:37:23;;;;;;;9.65;7.47;;;;;;;;;;2093460;28;20029;-73
2023/09/25 05:38:44;;;;;;;8.82;6.40;;;;;;;;;;2092431;28;20033;-73
2023/09/25 05:40:05;;;;;;;9.57;7.45;;;;;;;;;;2095790;28;20047;-74
2023/09/25 05:41:26;;;;;;;8.73;6.87;;;;;;;;;;2095043;28;20070;-74
2023/09/25 05:42:47;;;;;;;9.13;7.00;;;;;;;;;;2095872;28;20040;-74
2023/09/25 05:44:09;;;;;;;11.30;8.10;;;;;;;;;;2094607;28;20032;-74
2023/09/25 05:45:30;;;;;;;;;;;;;;;;;;2092824;28;20021;-74
2023/09/25 05:46:51;;;;;;;10.15;6.93;;;;;;;;;;2096210;28;20436;-74
2023/09/25 05:48:12;;;;;;;11.70;7.68;;;;;;;;;;2095970;28;20044;-74
2023/09/25 05:49:33;;;;;;;8.43;6.50;;;;;;;;;;2095565;28;20025;-74
2023/09/25 05:50:54;;;;;;;11.30;9.15;;;;;;;;;;2091237;28;20021;-75
2023/09/25 05:52:15;;;;;;;12.32;8.30;;;;;;;;;;2099338;28;20071;-75
2023/09/25 05:53:36;;;;;;;10.65;6.55;;;;;;;;;;2093937;28;20048;-74
2023/09/25 05:54:57;;;;;;;14.32;7.30;;;;;;;;;;2094535;28;20048;-74
2023/09/25 05:56:18;;;;;;;10.93;7.57;;;;;;;;;;2100625;28;20036;-74
2023/09/25 05:57:39;;;;;;;9.82;7.60;;;;;;;;;;2090275;28;20116;-72
2023/09/25 05:59:00;;;;;;;11.20;6.80;;;;;;;;;;2093135;28;20040;-74
2023/09/25 06:00:22;;;;;;;9.95;7.55;;;;;;;;;;2100074;28;20411;-74
2023/09/25 06:01:43;;;;;;;;;;;;;;;;;;2096487;28;20035;-74
2023/09/25 06:03:04;;;;;;;10.68;6.88;;;;;;;;;;2093719;28;19908;-76
2023/09/25 06:04:25;;;;;;;9.57;7.57;;;;;;;;;;2094032;28;20037;-74
2023/09/25 06:05:46;;;;;;;9.38;7.13;;;;;;;;;;2095743;28;20418;-73
2023/09/25 06:07:07;;;;;;;12.48;8.70;;;;;;;;;;2095121;28;20067;-73
2023/09/25 06:08:28;;;;;;;10.93;7.03;;;;;;;;;;2096002;28;20035;-74
2023/09/25 06:09:49;;;;;;;9.10;6.95;;;;;;;;;;2096766;28;20025;-74
2023/09/25 06:11:10;;;;;;;9.45;6.68;;;;;;;;;;2095862;28;20032;-75
2023/09/25 06:12:31;;;;;;;11.18;7.22;;;;;;;;;;2088683;28;20017;-74
2023/09/25 06:13:52;;;;;;;11.30;7.38;;;;;;;;;;2094006;28;20020;-74
2023/09/25 06:15:13;;;;;;;11.27;7.45;;;;;;;;;;2093728;28;20033;-72
2023/09/25 06:16:36;;;;;;;9.90;7.43;;;;;;;;;;2090825;28;20029;-74
2023/09/25 06:17:59;;;;;;;9.50;7.75;;;;;;;;;;2095610;28;20551;-74
2023/09/25 06:19:20;;;;;;;9.23;6.70;;;;;;;;;;2095628;28;20491;-74
2023/09/25 06:20:43;;;;;;;8.77;6.93;;;;;;;;;;2095953;28;20029;-75
2023/09/25 06:22:04;;;;;;;12.25;7.85;;;;;;;;;;2097105;28;20040;-75
2023/09/25 06:23:25;;;;;;;11.25;7.63;;;;;;;;;;2095519;28;20488;-74
2023/09/25 06:24:46;;;;;;;11.55;7.68;;;;;;;;;;2095708;28;20044;-74
2023/09/25 06:26:07;;;;;;;13.27;7.38;;;;;;;;;;2099617;28;20032;-74
2023/09/25 06:27:30;;;;;;;10.05;6.90;;;;;;;;;;2097749;28;20708;-75
2023/09/25 06:28:51;;;;;;;12.13;7.05;;;;;;;;;;2097432;28;20158;-75
2023/09/25 06:30:13;;;;;;;9.52;7.90;;;;;;;;;;2096207;28;20115;-74
2023/09/25 06:31:35;;;;;;;9.60;7.88;;;;;;;;;;2088251;28;20021;-75
2023/09/25 06:32:56;;;;;;;9.85;7.47;;;;;;;;;;2096806;28;20045;-75
2023/09/25 06:34:17;;;;;;;9.07;7.88;;;;;;;;;;2092407;28;20044;-75
2023/09/25 06:35:37;;;;;;;9.98;7.05;;;;;;;;;;2097512;28;20048;-75
2023/09/25 06:36:58;;;;;;;11.93;6.95;;;;;;;;;;2095623;28;20028;-75
2023/09/25 06:38:19;;;;;;;12.15;7.03;;;;;;;;;;2097659;28;20032;-75
2023/09/25 06:39:40;;;;;;;13.85;8.68;;;;;;;;;;2092323;28;20411;-75
2023/09/25 06:41:01;;;;;;;10.50;6.75;;;;;;;;;;2095951;28;20043;-75
2023/09/25 06:42:22;;;;;;;9.95;7.55;;;;;;;;;;2089518;28;20404;-74
2023/09/25 06:43:43;;;;;;;11.68;7.22;;;;;;;;;;2096467;28;20093;-75
2023/09/25 06:45:04;;;;;;;9.60;6.65;;;;;;;;;;2096722;28;20037;-75
2023/09/25 06:46:25;;;;;;;11.45;7.18;;;;;;;;;;2093372;28;20122;-75
2023/09/25 06:47:47;;;;;;;11.55;7.38;;;;;;;;;;2089504;28;20512;-75
2023/09/25 06:49:08;;;;;;;12.57;7.10;;;;;;;;;;2096559;28;20021;-75
2023/09/25 06:50:28;;;;;;;10.30;7.18;;;;;;;;;;2093926;28;20508;-74
2023/09/25 06:51:49;;;;;;;9.38;7.35;;;;;;;;;;2096978;28;20051;-74
2023/09/25 06:53:10;;;;;;;13.23;7.10;;;;;;;;;;2096047;28;20535;-74
2023/09/25 06:54:31;;;;;;;11.48;7.57;;;;;;;;;;2092868;28;20079;-74
2023/09/25 06:55:52;;;;;;;13.55;6.80;;;;;;;;;;2096035;28;20029;-74
2023/09/25 06:57:13;;;;;;;9.77;7.65;;;;;;;;;;2097050;28;20460;-75
2023/09/25 06:58:34;;;;;;;9.43;6.85;;;;;;;;;;2095950;28;20120;-72
2023/09/25 06:59:55;;;;;;;10.02;7.13;;;;;;;;;;2096887;28;20037;-72
2023/09/25 07:01:17;;;;;;;10.13;6.45;;;;;;;;;;2101342;28;20032;-72
2023/09/25 07:02:38;;;;;;;9.45;6.65;;;;;;;;;;2095838;28;20051;-72
2023/09/25 07:03:59;;;;;;;11.57;6.70;;;;;;;;;;2096963;28;20458;-72
2023/09/25 07:05:20;;;;;;;9.57;6.85;;;;;;;;;;2104798;28;20040;-72
2023/09/25 07:06:41;;;;;;;17.88;6.50;;;;;;;;;;2099960;28;20028;-72
2023/09/25 07:08:03;;;;;;;8.93;6.45;;;;;;;;;;2097064;28;20139;-72
2023/09/25 07:09:24;;;;;;;11.02;7.70;;;;;;;;;;2092118;28;20029;-73
2023/09/25 07:10:51;;;;;;;17.23;7.00;;;;;;;;;;2093720;28;20055;-72
2023/09/25 07:12:14;;;;;;;11.00;7.10;;;;;;;;;;2094403;28;20025;-73
2023/09/25 07:13:35;;;;;;;;;;;;;;;;;;2096925;28;20024;-72
2023/09/25 07:14:56;;;;;;;9.10;7.10;;;;;;;;;;2095865;28;20336;-72
2023/09/25 07:16:16;;;;;;;8.52;6.10;;;;;;;;;;2095258;28;20025;-73
2023/09/25 07:17:38;;;;;;;11.50;6.97;;;;;;;;;;2097108;28;20396;-72
2023/09/25 07:18:59;;;;;;;10.15;6.80;;;;;;;;;;2096759;28;20527;-72
2023/09/25 07:20:19;;;;;;;8.35;6.70;;;;;;;;;;2095697;28;20025;-74
2023/09/25 07:21:41;;;;;;;8.45;6.78;;;;;;;;;;2095754;28;20040;-74
2023/09/25 07:23:01;;;;;;;11.60;6.88;;;;;;;;;;2095220;28;20508;-73
2023/09/25 07:24:22;;;;;;;9.50;6.65;;;;;;;;;;2093697;28;20028;-73
2023/09/25 07:25:43;;;;;;;8.13;5.25;;;;;;;;;;2096592;28;20515;-72
2023/09/25 07:27:04;;;;;;;11.63;6.93;;;;;;;;;;2087769;28;20040;-74
2023/09/25 07:28:25;;;;;;;7.30;5.28;;;;;;;;;;2102528;28;20032;-72
2023/09/25 07:29:47;;;;;;;10.05;6.40;;;;;;;;;;2097697;28;20043;-74
2023/09/25 07:31:08;;;;;;;10.10;6.95;;;;;;;;;;2092716;28;20058;-73
2023/09/25 07:32:29;;;;;;;8.65;5.43;;;;;;;;;;2089733;28;20397;-73
2023/09/25 07:33:50;;;;;;;8.32;4.95;;;;;;;;;;2094341;28;20043;-72
2023/09/25 07:35:15;;;;;;;10.05;5.80;;;;;;;;;;2094331;28;20037;-70
2023/09/25 07:36:36;;;;;;;10.15;4.93;;;;;;;;;;2097867;28;20044;-71
2023/09/25 07:37:57;;;;;;;8.77;5.20;;;;;;;;;;2097678;28;20040;-70
2023/09/25 07:39:22;;;;;;;6.05;4.90;;;;;;;;;;2096865;28;20054;-70
2023/09/25 07:40:44;;;;;;;8.85;5.80;;;;;;;;;;2096593;28;20039;-70
2023/09/25 07:42:05;;;;;;;10.48;5.13;;;;;;;;;;2097729;28;20448;-70
2023/09/25 07:43:29;;;;;;;8.38;5.05;;;;;;;;;;2096394;28;20040;-70
2023/09/25 07:44:50;;;;;;;8.20;4.80;;;;;;;;;;2095347;28;20040;-70
2023/09/25 07:46:11;;;;;;;7.22;4.70;;;;;;;;;;2096304;28;20094;-71
2023/09/25 07:47:32;;;;;;;7.38;4.32;;;;;;;;;;2088660;28;20033;-70
2023/09/25 07:48:53;;;;;;;8.00;4.93;;;;;;;;;;2093930;28;20051;-70
2023/09/25 07:50:14;;;;;;;8.40;4.47;;;;;;;;;;2094862;28;20033;-70
2023/09/25 07:51:35;;;;;;;6.95;4.53;;;;;;;;;;2087817;28;20037;-70
2023/09/25 07:52:58;;;;;;;7.13;4.15;;;;;;;;;;2093805;28;20029;-71
2023/09/25 07:54:20;;;;;;;7.65;5.45;;;;;;;;;;2096867;28;20035;-70
2023/09/25 07:55:41;;;;;;;11.07;5.00;;;;;;;;;;2095454;28;20041;-70
2023/09/25 07:57:02;;;;;;;9.43;5.45;;;;;;;;;;2101787;28;20106;-70
2023/09/25 07:58:23;;;;;;;9.48;5.05;;;;;;;;;;2099052;28;20035;-71
2023/09/25 07:59:44;;;;;;;8.45;5.32;;;;;;;;;;2092358;28;20021;-70
2023/09/25 08:01:08;;;;;;;8.55;5.20;;;;;;;;;;2095779;28;20036;-70
2023/09/25 08:02:38;;;;;;;9.43;4.22;;;;;;;;;;2096655;28;20037;-70
2023/09/25 08:03:59;;;;;;;10.13;4.38;;;;;;;;;;2095090;28;20036;-70
2023/09/25 08:05:22;;;;;;;7.63;4.70;;;;;;;;;;2092948;28;20033;-70